createdAt,value
2019-03-15T00:00:48.477Z,1.30
2019-03-15T00:03:18.517Z,1.83
2019-03-15T00:05:48.624Z,1.73
2019-03-15T00:08:23.525Z,1.53
2019-03-15T00:10:54.687Z,1.77
2019-03-15T00:13:26.496Z,1.43
2019-03-15T00:15:56.774Z,1.30
2019-03-15T00:18:27.631Z,1.60
2019-03-15T00:20:58.073Z,1.70
2019-03-15T00:23:27.437Z,1.97
2019-03-15T00:25:56.803Z,2.80
2019-03-15T00:28:26.987Z,1.87
2019-03-15T00:30:58.323Z,1.50
2019-03-15T00:33:30.844Z,2.00
2019-03-15T00:36:01.153Z,2.03
2019-03-15T00:38:31.051Z,1.47
2019-03-15T00:41:00.180Z,2.13
2019-03-15T00:43:29.345Z,1.40
2019-03-15T00:45:58.511Z,1.50
2019-03-15T00:48:27.721Z,1.93
2019-03-15T00:50:56.962Z,1.87
2019-03-15T00:53:26.208Z,1.10
2019-03-15T00:55:55.353Z,1.57
2019-03-15T00:58:24.528Z,1.63
2019-03-15T01:00:53.688Z,1.37
2019-03-15T01:03:22.824Z,1.33
2019-03-15T01:05:52.044Z,1.30
2019-03-15T01:08:21.212Z,2.00
2019-03-15T01:10:50.436Z,1.40
2019-03-15T01:13:19.540Z,1.67
2019-03-15T01:15:48.773Z,2.00
2019-03-15T01:18:18.442Z,1.77
2019-03-15T01:20:47.792Z,1.30
2019-03-15T01:23:16.975Z,1.87
2019-03-15T01:25:46.121Z,1.80
2019-03-15T01:28:15.385Z,2.00
2019-03-15T01:30:44.540Z,1.80
2019-03-15T01:33:13.784Z,1.43
2019-03-15T01:35:42.993Z,1.50
2019-03-15T01:38:12.157Z,1.60
2019-03-15T01:40:41.475Z,1.60
2019-03-15T01:43:10.629Z,2.10
2019-03-15T01:45:39.876Z,1.60
2019-03-15T01:48:09.107Z,1.80
2019-03-15T01:50:38.408Z,1.53
2019-03-15T01:53:07.590Z,1.30
2019-03-15T01:55:36.768Z,1.60
2019-03-15T01:58:06.020Z,1.70
2019-03-15T02:00:35.176Z,1.83
2019-03-15T02:03:04.371Z,1.20
2019-03-15T02:05:33.513Z,1.87
2019-03-15T02:08:03.020Z,1.30
2019-03-15T02:10:32.178Z,1.40
2019-03-15T02:13:01.418Z,1.30
2019-03-15T02:15:30.522Z,1.97
2019-03-15T02:17:59.701Z,2.50
2019-03-15T02:20:28.911Z,1.60
2019-03-15T02:22:58.349Z,1.27
2019-03-15T02:25:27.732Z,2.57
2019-03-15T02:27:56.868Z,1.57
2019-03-15T02:30:26.106Z,2.70
2019-03-15T02:32:55.331Z,2.93
2019-03-15T02:35:24.544Z,1.30
2019-03-15T02:37:53.776Z,1.93
2019-03-15T02:40:22.965Z,1.70
2019-03-15T02:42:53.143Z,1.30
2019-03-15T02:45:22.576Z,1.23
2019-03-15T02:47:51.731Z,1.43
2019-03-15T02:50:20.868Z,1.40
2019-03-15T02:52:50.093Z,1.33
2019-03-15T02:55:20.345Z,1.60
2019-03-15T02:57:50.278Z,1.60
2019-03-15T03:00:19.417Z,1.20
2019-03-15T03:02:48.677Z,1.40
2019-03-15T03:05:17.903Z,1.70
2019-03-15T03:07:48.149Z,1.23
2019-03-15T03:10:17.716Z,1.40
2019-03-15T03:12:46.840Z,2.07
2019-03-15T03:15:15.990Z,1.40
2019-03-15T03:17:45.124Z,1.60
2019-03-15T03:20:14.295Z,1.80
2019-03-15T03:22:43.542Z,1.80
2019-03-15T03:25:12.748Z,1.70
2019-03-15T03:27:42.116Z,1.90
2019-03-15T03:30:11.754Z,2.60
2019-03-15T03:32:44.187Z,1.43
2019-03-15T03:35:12.435Z,1.13
2019-03-15T03:37:41.878Z,1.70
2019-03-15T03:40:11.049Z,2.27
2019-03-15T03:42:40.205Z,3.10
2019-03-15T03:45:09.565Z,1.30
2019-03-15T03:47:38.717Z,1.43
2019-03-15T03:50:08.021Z,1.63
2019-03-15T03:52:37.268Z,1.67
2019-03-15T03:55:06.732Z,1.50
2019-03-15T03:57:36.584Z,1.73
2019-03-15T04:00:08.228Z,1.47
2019-03-15T04:02:37.351Z,3.87
2019-03-15T04:05:06.694Z,2.43
2019-03-15T04:07:35.820Z,1.50
2019-03-15T04:10:05.779Z,1.70
2019-03-15T04:12:35.102Z,2.20
2019-03-15T04:15:05.104Z,2.27
2019-03-15T04:17:34.324Z,2.70
2019-03-15T04:20:03.492Z,2.10
2019-03-15T04:22:32.636Z,1.30
2019-03-15T04:25:03.309Z,1.57
2019-03-15T04:27:32.483Z,1.80
2019-03-15T04:30:01.702Z,2.80
2019-03-15T04:32:30.929Z,2.10
2019-03-15T04:35:00.338Z,2.10
2019-03-15T04:37:29.829Z,1.80
2019-03-15T04:39:58.967Z,1.87
2019-03-15T04:42:28.155Z,1.90
2019-03-15T04:44:57.374Z,2.10
2019-03-15T04:47:26.541Z,1.80
2019-03-15T04:49:55.656Z,1.53
2019-03-15T04:52:24.820Z,2.53
2019-03-15T04:54:53.959Z,2.33
2019-03-15T04:57:23.129Z,1.90
2019-03-15T04:59:52.272Z,2.80
2019-03-15T05:02:21.404Z,2.50
2019-03-15T05:04:50.572Z,2.27
2019-03-15T05:07:19.690Z,2.00
2019-03-15T05:09:50.062Z,2.40
2019-03-15T05:12:19.205Z,2.33
2019-03-15T05:14:48.423Z,3.27
2019-03-15T05:17:17.658Z,2.23
2019-03-15T05:19:46.793Z,2.43
2019-03-15T05:22:15.944Z,2.20
2019-03-15T05:24:45.484Z,2.03
2019-03-15T05:27:14.684Z,2.30
2019-03-15T05:29:43.831Z,2.80
2019-03-15T05:32:13.092Z,2.37
2019-03-15T05:34:42.216Z,2.27
2019-03-15T05:37:11.427Z,3.20
2019-03-15T05:39:40.605Z,2.67
2019-03-15T05:42:09.772Z,3.27
2019-03-15T05:44:38.903Z,3.27
2019-03-15T05:47:08.092Z,3.17
2019-03-15T05:49:37.251Z,3.07
2019-03-15T05:52:06.396Z,3.10
2019-03-15T05:54:35.641Z,3.30
2019-03-15T05:57:04.996Z,2.60
2019-03-15T05:59:34.132Z,2.50
2019-03-15T06:02:03.254Z,2.37
2019-03-15T06:04:32.488Z,2.37
2019-03-15T06:07:03.215Z,2.70
2019-03-15T06:09:32.409Z,2.30
2019-03-15T06:12:01.535Z,2.30
2019-03-15T06:14:30.661Z,2.07
2019-03-15T06:16:59.816Z,2.23
2019-03-15T06:19:29.049Z,1.83
2019-03-15T06:21:58.231Z,2.10
2019-03-15T06:24:27.421Z,2.33
2019-03-15T06:26:56.568Z,2.30
2019-03-15T06:29:25.714Z,2.10
2019-03-15T06:31:54.858Z,2.50
2019-03-15T06:34:24.076Z,2.27
2019-03-15T06:36:53.292Z,2.23
2019-03-15T06:39:22.562Z,1.90
2019-03-15T06:41:51.747Z,1.90
2019-03-15T06:44:21.654Z,3.00
2019-03-15T06:46:50.852Z,2.23
2019-03-15T06:49:21.111Z,1.50
2019-03-15T06:51:50.452Z,2.60
2019-03-15T06:54:19.616Z,1.60
2019-03-15T06:56:48.920Z,1.70
2019-03-15T06:59:18.063Z,1.87
2019-03-15T07:01:47.177Z,1.70
2019-03-15T07:04:16.386Z,1.27
2019-03-15T07:06:46.707Z,1.20
2019-03-15T07:09:15.883Z,1.23
2019-03-15T07:11:45.162Z,1.33
2019-03-15T07:14:14.532Z,1.07
2019-03-15T07:16:43.752Z,0.90
2019-03-15T07:19:25.254Z,1.10
2019-03-15T07:21:46.768Z,1.20
2019-03-15T07:24:24.432Z,1.10
2019-03-15T07:26:45.770Z,1.27
2019-03-15T07:29:14.916Z,1.30
2019-03-15T07:31:44.152Z,1.80
2019-03-15T07:34:13.966Z,1.10
2019-03-15T07:36:43.537Z,0.90
2019-03-15T07:39:13.086Z,1.20
2019-03-15T07:41:42.391Z,1.17
2019-03-15T07:44:11.581Z,1.13
2019-03-15T07:46:40.740Z,1.37
2019-03-15T07:49:09.917Z,1.30
2019-03-15T07:51:39.092Z,1.33
2019-03-15T07:54:08.236Z,1.23
2019-03-15T07:56:37.467Z,1.13
2019-03-15T07:59:06.629Z,2.53
2019-03-15T08:01:35.804Z,1.12
2019-03-15T08:04:16.283Z,1.10
2019-03-15T08:06:36.399Z,1.00
2019-03-15T08:09:07.438Z,1.43
2019-03-15T08:11:36.699Z,1.00
2019-03-15T08:14:05.850Z,1.60
2019-03-15T08:16:35.032Z,0.90
2019-03-15T08:19:05.210Z,1.10
2019-03-15T08:21:34.633Z,0.90
2019-03-15T08:24:03.917Z,1.70
2019-03-15T08:26:33.161Z,1.20
2019-03-15T08:29:02.339Z,0.97
2019-03-15T08:31:31.606Z,1.30
2019-03-15T08:34:00.778Z,1.20
2019-03-15T08:36:30.181Z,1.10
2019-03-15T08:38:59.437Z,1.30
2019-03-15T08:41:28.705Z,1.43
2019-03-15T08:43:57.923Z,1.47
2019-03-15T08:46:27.077Z,1.23
2019-03-15T08:48:56.280Z,2.30
2019-03-15T08:51:25.505Z,1.63
2019-03-15T08:53:54.767Z,1.57
2019-03-15T08:56:23.946Z,1.20
2019-03-15T08:58:53.203Z,1.37
2019-03-15T09:01:23.907Z,1.20
2019-03-15T09:03:53.317Z,1.20
2019-03-15T09:06:22.557Z,1.70
2019-03-15T09:08:51.839Z,1.10
2019-03-15T09:11:21.006Z,1.13
2019-03-15T09:13:50.188Z,1.23
2019-03-15T09:16:19.433Z,1.30
2019-03-15T09:18:48.641Z,1.43
2019-03-15T09:21:17.958Z,1.30
2019-03-15T09:23:47.202Z,1.07
2019-03-15T09:26:16.381Z,1.33
2019-03-15T09:28:45.669Z,1.43
2019-03-15T09:31:14.833Z,1.93
2019-03-15T09:33:44.088Z,1.73
2019-03-15T09:36:13.336Z,1.70
2019-03-15T09:38:42.504Z,1.30
2019-03-15T09:41:11.877Z,0.90
2019-03-15T09:43:41.084Z,1.00
2019-03-15T09:46:10.363Z,1.00
2019-03-15T09:48:43.961Z,1.30
2019-03-15T09:51:13.371Z,1.33
2019-03-15T09:53:42.482Z,1.27
2019-03-15T09:56:11.752Z,0.97
2019-03-15T09:58:40.945Z,1.10
2019-03-15T10:01:10.319Z,1.20
2019-03-15T10:03:39.816Z,1.07
2019-03-15T10:06:14.957Z,1.17
2019-03-15T10:08:39.956Z,1.20
2019-03-15T10:11:09.240Z,1.10
2019-03-15T10:13:38.389Z,1.10
2019-03-15T10:16:07.611Z,1.73
2019-03-15T10:18:36.829Z,1.20
2019-03-15T10:21:09.110Z,1.20
2019-03-15T10:23:37.194Z,1.10
2019-03-15T10:26:06.366Z,1.30
2019-03-15T10:28:35.579Z,1.47
2019-03-15T10:31:04.710Z,1.50
2019-03-15T10:33:33.971Z,1.00
2019-03-15T10:36:03.308Z,1.40
2019-03-15T10:38:32.453Z,1.30
2019-03-15T10:41:01.651Z,1.37
2019-03-15T10:43:30.854Z,1.77
2019-03-15T10:46:00.007Z,1.07
2019-03-15T10:48:29.300Z,1.20
2019-03-15T10:50:58.678Z,1.50
2019-03-15T10:53:27.921Z,1.30
2019-03-15T10:56:00.547Z,1.27
2019-03-15T10:58:28.352Z,2.83
2019-03-15T11:00:57.597Z,1.57
2019-03-15T11:03:26.957Z,1.30
2019-03-15T11:05:56.120Z,1.30
2019-03-15T11:08:25.251Z,1.40
2019-03-15T11:10:54.481Z,1.60
2019-03-15T11:13:23.767Z,1.70
2019-03-15T11:15:52.992Z,1.40
2019-03-15T11:18:22.142Z,1.17
2019-03-15T11:20:51.397Z,1.47
2019-03-15T11:23:20.718Z,1.60
2019-03-15T11:25:49.916Z,1.30
2019-03-15T11:28:19.229Z,1.47
2019-03-15T11:30:48.468Z,1.30
2019-03-15T11:33:17.729Z,1.50
2019-03-15T11:35:46.977Z,1.70
2019-03-15T11:38:16.199Z,1.30
2019-03-15T11:40:45.504Z,1.33
2019-03-15T11:43:14.638Z,1.40
2019-03-15T11:45:43.888Z,1.23
2019-03-15T11:48:13.145Z,1.20
2019-03-15T11:50:42.300Z,1.00
2019-03-15T11:53:11.529Z,0.70
2019-03-15T11:55:40.843Z,1.30
2019-03-15T11:58:10.075Z,1.10
2019-03-15T12:00:39.349Z,1.10
2019-03-15T12:03:08.531Z,0.70
2019-03-15T12:05:37.703Z,1.00
2019-03-15T12:08:07.033Z,0.73
2019-03-15T12:10:36.249Z,0.90
2019-03-15T12:13:05.645Z,0.80
2019-03-15T12:15:36.355Z,0.80
2019-03-15T12:18:08.212Z,0.60
2019-03-15T12:20:36.621Z,1.03
2019-03-15T12:23:05.791Z,0.80
2019-03-15T12:25:35.001Z,0.70
2019-03-15T12:28:04.351Z,0.77
2019-03-15T12:30:33.621Z,0.70
2019-03-15T12:33:02.920Z,1.23
2019-03-15T12:35:32.106Z,1.00
2019-03-15T12:38:01.307Z,0.80
2019-03-15T12:40:30.659Z,0.90
2019-03-15T12:42:59.989Z,0.70
2019-03-15T12:45:29.257Z,0.60
2019-03-15T12:47:58.516Z,0.50
2019-03-15T12:50:27.748Z,0.70
2019-03-15T12:52:56.932Z,0.70
2019-03-15T12:55:26.223Z,0.70
2019-03-15T12:57:56.643Z,0.60
2019-03-15T13:00:25.994Z,0.70
2019-03-15T13:02:55.269Z,0.60
2019-03-15T13:05:24.526Z,0.60
2019-03-15T13:07:53.834Z,0.60
2019-03-15T13:10:23.158Z,0.70
2019-03-15T13:12:52.674Z,0.63
2019-03-15T13:15:21.910Z,0.53
2019-03-15T13:17:51.218Z,0.60
2019-03-15T13:20:21.663Z,0.60
2019-03-15T13:22:51.002Z,0.70
2019-03-15T13:25:20.264Z,0.80
2019-03-15T13:27:49.441Z,0.80
2019-03-15T13:30:18.797Z,0.70
2019-03-15T13:32:48.038Z,0.60
2019-03-15T13:35:17.282Z,0.80
2019-03-15T13:37:46.570Z,0.70
2019-03-15T13:40:16.053Z,0.90
2019-03-15T13:42:45.292Z,0.70
2019-03-15T13:45:15.725Z,1.00
2019-03-15T13:47:45.039Z,0.70
2019-03-15T13:50:14.467Z,0.93
2019-03-15T13:52:43.780Z,0.70
2019-03-15T13:55:13.066Z,0.53
2019-03-15T13:57:42.375Z,0.60
2019-03-15T14:00:12.311Z,0.60
2019-03-15T14:02:41.568Z,0.60
2019-03-15T14:05:11.346Z,0.70
2019-03-15T14:07:40.582Z,0.80
2019-03-15T14:10:10.257Z,0.60
2019-03-15T14:12:39.450Z,0.70
2019-03-15T14:15:10.079Z,0.70
2019-03-15T14:17:39.366Z,0.60
2019-03-15T14:20:09.909Z,0.60
2019-03-15T14:22:39.169Z,0.57
2019-03-15T14:25:09.728Z,0.60
2019-03-15T14:27:39.040Z,0.70
2019-03-15T14:30:09.655Z,0.70
2019-03-15T14:32:38.935Z,0.70
2019-03-15T14:35:08.914Z,0.60
2019-03-15T14:37:38.240Z,0.50
2019-03-15T14:40:07.612Z,0.60
2019-03-15T14:42:37.025Z,0.70
2019-03-15T14:45:07.079Z,0.63
2019-03-15T14:47:36.275Z,0.70
2019-03-15T14:50:06.921Z,0.60
2019-03-15T14:52:36.214Z,0.60
2019-03-15T14:55:06.374Z,1.00
2019-03-15T14:57:35.669Z,0.67
2019-03-15T15:00:05.924Z,0.57
2019-03-15T15:02:35.167Z,0.50
2019-03-15T15:05:04.737Z,0.50
2019-03-15T15:07:34.060Z,0.70
2019-03-15T15:10:03.482Z,0.63
2019-03-15T15:12:32.673Z,0.60
2019-03-15T15:15:01.893Z,0.70
2019-03-15T15:17:31.220Z,0.57
2019-03-15T15:20:00.568Z,0.70
2019-03-15T15:22:29.899Z,0.60
2019-03-15T15:24:59.089Z,0.50
2019-03-15T15:27:28.442Z,0.70
2019-03-15T15:29:57.753Z,0.50
2019-03-15T15:32:27.007Z,0.60
2019-03-15T15:34:56.339Z,0.50
2019-03-15T15:37:25.527Z,0.70
2019-03-15T15:39:54.815Z,0.60
2019-03-15T15:42:24.189Z,0.57
2019-03-15T15:44:53.376Z,0.63
2019-03-15T15:47:22.673Z,0.60
2019-03-15T15:49:51.985Z,0.60
2019-03-15T15:52:21.308Z,0.60
2019-03-15T15:54:50.567Z,0.50
2019-03-15T15:57:19.858Z,0.60
2019-03-15T15:59:49.152Z,0.50
2019-03-15T16:02:18.455Z,0.60
2019-03-15T16:04:47.722Z,0.60
2019-03-15T16:07:16.997Z,0.60
2019-03-15T16:09:46.340Z,0.60
2019-03-15T16:12:15.657Z,0.50
2019-03-15T16:14:44.877Z,0.50
2019-03-15T16:17:14.083Z,0.80
2019-03-15T16:19:43.350Z,0.60
2019-03-15T16:22:12.615Z,0.80
2019-03-15T16:24:41.889Z,0.70
2019-03-15T16:27:11.128Z,0.50
2019-03-15T16:29:40.451Z,0.50
2019-03-15T16:32:09.666Z,0.70
2019-03-15T16:34:38.896Z,0.70
2019-03-15T16:37:08.193Z,0.50
2019-03-15T16:39:37.491Z,0.60
2019-03-15T16:42:06.666Z,0.50
2019-03-15T16:44:35.951Z,0.60
2019-03-15T16:47:05.450Z,0.60
2019-03-15T16:49:36.179Z,0.60
2019-03-15T16:52:06.391Z,0.60
2019-03-15T16:54:35.581Z,1.87
2019-03-15T16:57:04.874Z,0.90
2019-03-15T16:59:34.173Z,0.60
2019-03-15T17:02:03.641Z,0.70
2019-03-15T17:04:32.966Z,0.70
2019-03-15T17:07:02.295Z,0.63
2019-03-15T17:09:31.718Z,0.50
2019-03-15T17:12:01.056Z,0.60
2019-03-15T17:14:30.414Z,0.70
2019-03-15T17:16:59.804Z,0.63
2019-03-15T17:19:29.097Z,0.63
2019-03-15T17:21:58.509Z,0.70
2019-03-15T17:24:27.986Z,0.70
2019-03-15T17:26:57.301Z,0.60
2019-03-15T17:29:26.601Z,0.60
2019-03-15T17:31:55.861Z,0.60
2019-03-15T17:34:25.248Z,0.70
2019-03-15T17:37:06.030Z,0.70
2019-03-15T17:39:25.801Z,0.80
2019-03-15T17:41:55.181Z,0.60
2019-03-15T17:44:24.414Z,0.60
2019-03-15T17:46:53.780Z,0.70
2019-03-15T17:49:23.090Z,0.80
2019-03-15T17:51:52.392Z,0.90
2019-03-15T17:54:21.747Z,0.60
2019-03-15T17:56:50.966Z,0.77
2019-03-15T17:59:20.344Z,0.60
2019-03-15T18:01:49.592Z,0.67
2019-03-15T18:04:18.940Z,0.63
2019-03-15T18:06:48.133Z,0.57
2019-03-15T18:09:17.477Z,0.60
2019-03-15T18:11:46.768Z,0.60
2019-03-15T18:14:15.989Z,0.60
2019-03-15T18:16:45.429Z,0.60
2019-03-15T18:19:14.724Z,0.60
2019-03-15T18:21:44.185Z,0.60
2019-03-15T18:24:13.530Z,0.60
2019-03-15T18:26:42.764Z,0.60
2019-03-15T18:29:25.441Z,0.63
2019-03-15T18:31:43.089Z,0.60
2019-03-15T18:34:12.393Z,0.60
2019-03-15T18:36:43.048Z,0.73
2019-03-15T18:39:12.569Z,0.77
2019-03-15T18:41:41.821Z,0.60
2019-03-15T18:44:11.129Z,0.60
2019-03-15T18:46:40.678Z,0.70
2019-03-15T18:49:09.922Z,0.50
2019-03-15T18:51:39.210Z,0.70
2019-03-15T18:54:17.460Z,0.50
2019-03-15T18:56:39.482Z,0.73
2019-03-15T18:59:08.866Z,0.80
2019-03-15T19:01:38.121Z,0.70
2019-03-15T19:04:07.440Z,0.60
2019-03-15T19:06:36.717Z,0.50
2019-03-15T19:09:07.486Z,0.80
2019-03-15T19:11:36.751Z,0.70
2019-03-15T19:14:05.944Z,0.80
2019-03-15T19:16:35.274Z,0.90
2019-03-15T19:19:04.566Z,0.70
2019-03-15T19:21:33.937Z,0.60
2019-03-15T19:24:03.275Z,0.60
2019-03-15T19:26:32.520Z,0.60
2019-03-15T19:29:01.827Z,0.70
2019-03-15T19:31:31.181Z,0.70
2019-03-15T19:34:00.587Z,1.07
2019-03-15T19:36:29.789Z,0.90
2019-03-15T19:38:58.991Z,0.70
2019-03-15T19:41:28.289Z,0.50
2019-03-15T19:43:57.533Z,0.70
2019-03-15T19:46:26.814Z,0.70
2019-03-15T19:48:56.127Z,0.70
2019-03-15T19:51:25.396Z,0.60
2019-03-15T19:53:54.673Z,0.70
2019-03-15T19:56:23.968Z,0.60
2019-03-15T19:58:54.401Z,0.60
2019-03-15T20:01:23.584Z,0.80
2019-03-15T20:03:52.985Z,0.60
2019-03-15T20:06:22.318Z,0.60
2019-03-15T20:08:51.617Z,0.60
2019-03-15T20:11:21.121Z,0.60
2019-03-15T20:13:50.380Z,0.60
2019-03-15T20:16:21.326Z,0.50
2019-03-15T20:18:51.733Z,0.53
2019-03-15T20:21:21.102Z,0.80
2019-03-15T20:23:50.338Z,0.77
2019-03-15T20:26:19.596Z,0.63
2019-03-15T20:28:48.889Z,0.60
2019-03-15T20:31:18.171Z,0.80
2019-03-15T20:33:47.668Z,0.70
2019-03-15T20:36:16.916Z,0.80
2019-03-15T20:38:46.189Z,1.30
2019-03-15T20:41:19.576Z,0.70
2019-03-15T20:43:46.505Z,0.70
2019-03-15T20:46:16.082Z,0.70
2019-03-15T20:48:45.504Z,0.60
2019-03-15T20:51:14.688Z,0.67
2019-03-15T20:53:44.065Z,1.00
2019-03-15T20:56:13.338Z,0.80
2019-03-15T20:58:42.644Z,0.70
2019-03-15T21:01:11.874Z,1.33
2019-03-15T21:03:41.129Z,0.90
2019-03-15T21:06:10.410Z,0.80
2019-03-15T21:08:39.725Z,0.90
2019-03-15T21:11:09.088Z,0.70
2019-03-15T21:13:38.486Z,0.70
2019-03-15T21:16:07.740Z,0.70
2019-03-15T21:18:37.037Z,0.70
2019-03-15T21:21:06.309Z,0.80
2019-03-15T21:23:35.607Z,0.70
2019-03-15T21:26:04.941Z,0.60
2019-03-15T21:28:35.353Z,0.70
2019-03-15T21:31:05.796Z,0.63
2019-03-15T21:33:35.065Z,0.70
2019-03-15T21:36:04.322Z,0.70
2019-03-15T21:38:43.426Z,0.70
2019-03-15T21:41:04.808Z,0.70
2019-03-15T21:43:34.120Z,0.70
2019-03-15T21:46:03.358Z,0.60
2019-03-15T21:48:32.691Z,0.60
2019-03-15T21:51:01.971Z,0.93
2019-03-15T21:53:31.301Z,0.50
2019-03-15T21:56:00.493Z,0.70
2019-03-15T21:58:29.845Z,0.67
2019-03-15T22:01:02.603Z,1.50
2019-03-15T22:03:30.160Z,0.60
2019-03-15T22:06:01.311Z,0.70
2019-03-15T22:08:30.668Z,0.93
2019-03-15T22:10:59.940Z,0.70
2019-03-15T22:13:29.180Z,0.60
2019-03-15T22:15:58.571Z,0.50
2019-03-15T22:18:27.912Z,0.70
2019-03-15T22:20:57.148Z,1.80
2019-03-15T22:23:26.396Z,1.00
2019-03-15T22:25:55.602Z,0.80
2019-03-15T22:28:24.904Z,0.70
2019-03-15T22:30:54.164Z,0.80
2019-03-15T22:33:23.381Z,0.70
2019-03-15T22:35:52.538Z,0.60
2019-03-15T22:38:26.447Z,0.67
2019-03-15T22:40:52.852Z,0.60
2019-03-15T22:43:22.057Z,0.50
2019-03-15T22:45:51.221Z,0.70
2019-03-15T22:48:20.452Z,0.60
2019-03-15T22:50:49.688Z,0.70
2019-03-15T22:53:20.805Z,0.60
2019-03-15T22:55:50.061Z,0.60
2019-03-15T22:58:19.336Z,0.67
2019-03-15T23:00:49.605Z,0.50
2019-03-15T23:03:18.844Z,0.70
2019-03-15T23:05:48.025Z,0.60
2019-03-15T23:08:17.347Z,0.60
2019-03-15T23:10:47.287Z,0.60
2019-03-15T23:13:16.687Z,0.60
2019-03-15T23:15:45.975Z,0.60
2019-03-15T23:18:15.248Z,0.50
2019-03-15T23:20:44.392Z,0.60
2019-03-15T23:23:23.376Z,0.70
2019-03-15T23:25:44.842Z,0.50
2019-03-15T23:28:14.337Z,0.60
2019-03-15T23:30:43.562Z,0.60
2019-03-15T23:33:12.896Z,0.70
2019-03-15T23:35:53.434Z,0.73
2019-03-15T23:38:14.072Z,0.50
2019-03-15T23:40:43.348Z,0.60
2019-03-15T23:43:12.497Z,0.50
2019-03-15T23:45:41.802Z,0.50
2019-03-15T23:48:10.988Z,0.50
2019-03-15T23:50:40.303Z,0.50
2019-03-15T23:53:09.646Z,0.50
2019-03-15T23:55:38.806Z,0.67
2019-03-15T23:58:07.974Z,0.50
